sensor_id;sensor_type;location;lat;lon;timestamp;temperature;humidity
18805;DHT22;9530;48.930;9.526;2023-04-15T00:00:06;4.40;99.90
18805;DHT22;9530;48.930;9.526;2023-04-15T00:02:34;4.40;99.90
18805;DHT22;9530;48.930;9.526;2023-04-15T00:05:01;4.30;99.90
18805;DHT22;9530;48.930;9.526;2023-04-15T00:07:28;4.30;99.90
18805;DHT22;9530;48.930;9.526;2023-04-15T00:09:56;4.30;99.90
18805;DHT22;9530;48.930;9.526;2023-04-15T00:12:22;4.40;99.90
18805;DHT22;9530;48.930;9.526;2023-04-15T00:14:49;4.40;99.90
18805;DHT22;9530;48.930;9.526;2023-04-15T00:17:16;4.40;99.90
18805;DHT22;9530;48.930;9.526;2023-04-15T00:19:44;4.30;99.90
18805;DHT22;9530;48.930;9.526;2023-04-15T00:22:12;4.40;99.90
18805;DHT22;9530;48.930;9.526;2023-04-15T00:24:39;4.30;99.90
18805;DHT22;9530;48.930;9.526;2023-04-15T00:27:05;4.30;99.90
18805;DHT22;9530;48.930;9.526;2023-04-15T00:29:32;4.40;99.90
18805;DHT22;9530;48.930;9.526;2023-04-15T00:31:59;4.40;99.90
18805;DHT22;9530;48.930;9.526;2023-04-15T00:34:26;4.40;99.90
18805;DHT22;9530;48.930;9.526;2023-04-15T00:36:54;4.40;99.90
18805;DHT22;9530;48.930;9.526;2023-04-15T00:39:21;4.50;99.90
18805;DHT22;9530;48.930;9.526;2023-04-15T00:41:48;4.50;99.90
18805;DHT22;9530;48.930;9.526;2023-04-15T00:44:15;4.60;99.90
18805;DHT22;9530;48.930;9.526;2023-04-15T00:46:43;4.70;99.90
18805;DHT22;9530;48.930;9.526;2023-04-15T00:49:11;4.60;99.90
18805;DHT22;9530;48.930;9.526;2023-04-15T00:51:38;4.60;99.90
18805;DHT22;9530;48.930;9.526;2023-04-15T00:54:06;4.60;99.90
18805;DHT22;9530;48.930;9.526;2023-04-15T00:56:34;4.60;99.90
18805;DHT22;9530;48.930;9.526;2023-04-15T00:59:02;4.50;99.90
18805;DHT22;9530;48.930;9.526;2023-04-15T01:01:30;4.50;99.90
18805;DHT22;9530;48.930;9.526;2023-04-15T01:03:57;4.40;99.90
18805;DHT22;9530;48.930;9.526;2023-04-15T01:06:23;4.50;99.90
18805;DHT22;9530;48.930;9.526;2023-04-15T01:08:52;4.40;99.90
18805;DHT22;9530;48.930;9.526;2023-04-15T01:11:20;4.50;99.90
18805;DHT22;9530;48.930;9.526;2023-04-15T01:13:47;4.50;99.90
18805;DHT22;9530;48.930;9.526;2023-04-15T01:16:14;4.40;99.90
18805;DHT22;9530;48.930;9.526;2023-04-15T01:18:41;4.40;99.90
18805;DHT22;9530;48.930;9.526;2023-04-15T01:21:08;4.20;99.90
18805;DHT22;9530;48.930;9.526;2023-04-15T01:23:35;4.20;99.90
18805;DHT22;9530;48.930;9.526;2023-04-15T01:26:04;4.30;99.90
18805;DHT22;9530;48.930;9.526;2023-04-15T01:28:32;4.20;99.90
18805;DHT22;9530;48.930;9.526;2023-04-15T01:31:06;4.20;99.90
18805;DHT22;9530;48.930;9.526;2023-04-15T01:33:33;4.20;99.90
18805;DHT22;9530;48.930;9.526;2023-04-15T01:35:59;4.10;99.90
18805;DHT22;9530;48.930;9.526;2023-04-15T01:38:27;4.10;99.90
18805;DHT22;9530;48.930;9.526;2023-04-15T01:40:55;4.00;99.90
18805;DHT22;9530;48.930;9.526;2023-04-15T01:43:23;3.90;99.90
18805;DHT22;9530;48.930;9.526;2023-04-15T01:45:49;3.90;99.90
18805;DHT22;9530;48.930;9.526;2023-04-15T01:48:16;3.80;99.90
18805;DHT22;9530;48.930;9.526;2023-04-15T01:50:43;3.70;99.90
18805;DHT22;9530;48.930;9.526;2023-04-15T01:53:10;3.70;99.90
18805;DHT22;9530;48.930;9.526;2023-04-15T01:55:37;3.70;99.90
18805;DHT22;9530;48.930;9.526;2023-04-15T01:58:03;3.70;99.90
18805;DHT22;9530;48.930;9.526;2023-04-15T02:00:31;3.60;99.90
18805;DHT22;9530;48.930;9.526;2023-04-15T02:02:58;3.60;99.90
18805;DHT22;9530;48.930;9.526;2023-04-15T02:05:25;3.40;99.90
18805;DHT22;9530;48.930;9.526;2023-04-15T02:07:52;3.40;99.90
18805;DHT22;9530;48.930;9.526;2023-04-15T02:10:19;3.40;99.90
18805;DHT22;9530;48.930;9.526;2023-04-15T02:12:45;3.50;99.90
18805;DHT22;9530;48.930;9.526;2023-04-15T02:15:12;3.50;99.90
18805;DHT22;9530;48.930;9.526;2023-04-15T02:17:40;3.50;99.90
18805;DHT22;9530;48.930;9.526;2023-04-15T02:20:10;3.50;99.90
18805;DHT22;9530;48.930;9.526;2023-04-15T02:22:37;3.40;99.90
18805;DHT22;9530;48.930;9.526;2023-04-15T02:25:05;3.30;99.90
18805;DHT22;9530;48.930;9.526;2023-04-15T02:27:32;3.30;99.90
18805;DHT22;9530;48.930;9.526;2023-04-15T02:29:58;3.30;99.90
18805;DHT22;9530;48.930;9.526;2023-04-15T02:32:25;3.20;99.90
18805;DHT22;9530;48.930;9.526;2023-04-15T02:34:54;3.30;99.90
18805;DHT22;9530;48.930;9.526;2023-04-15T02:37:21;3.20;99.90
18805;DHT22;9530;48.930;9.526;2023-04-15T02:39:49;3.30;99.90
18805;DHT22;9530;48.930;9.526;2023-04-15T02:42:15;3.30;99.90
18805;DHT22;9530;48.930;9.526;2023-04-15T02:44:42;3.20;99.90
18805;DHT22;9530;48.930;9.526;2023-04-15T02:47:09;3.10;99.90
18805;DHT22;9530;48.930;9.526;2023-04-15T02:49:36;3.10;99.90
18805;DHT22;9530;48.930;9.526;2023-04-15T02:52:04;3.00;99.90
18805;DHT22;9530;48.930;9.526;2023-04-15T02:54:31;2.90;99.90
18805;DHT22;9530;48.930;9.526;2023-04-15T02:56:58;2.90;99.90
18805;DHT22;9530;48.930;9.526;2023-04-15T02:59:26;2.90;99.90
18805;DHT22;9530;48.930;9.526;2023-04-15T03:01:52;2.90;99.90
18805;DHT22;9530;48.930;9.526;2023-04-15T03:04:20;3.00;99.90
18805;DHT22;9530;48.930;9.526;2023-04-15T03:06:47;3.00;99.90
18805;DHT22;9530;48.930;9.526;2023-04-15T03:09:15;2.90;99.90
18805;DHT22;9530;48.930;9.526;2023-04-15T03:11:42;3.00;99.90
18805;DHT22;9530;48.930;9.526;2023-04-15T03:14:08;3.10;99.90
18805;DHT22;9530;48.930;9.526;2023-04-15T03:16:35;3.10;99.90
18805;DHT22;9530;48.930;9.526;2023-04-15T03:19:02;3.20;99.90
18805;DHT22;9530;48.930;9.526;2023-04-15T03:21:28;3.20;99.90
18805;DHT22;9530;48.930;9.526;2023-04-15T03:23:55;3.40;99.90
18805;DHT22;9530;48.930;9.526;2023-04-15T03:26:27;3.40;99.90
18805;DHT22;9530;48.930;9.526;2023-04-15T03:28:55;3.40;99.90
18805;DHT22;9530;48.930;9.526;2023-04-15T03:31:21;3.40;99.90
18805;DHT22;9530;48.930;9.526;2023-04-15T03:33:48;3.40;99.90
18805;DHT22;9530;48.930;9.526;2023-04-15T03:36:15;3.40;99.90
18805;DHT22;9530;48.930;9.526;2023-04-15T03:38:42;3.40;99.90
18805;DHT22;9530;48.930;9.526;2023-04-15T03:41:09;3.40;99.90
18805;DHT22;9530;48.930;9.526;2023-04-15T03:43:37;3.40;99.90
18805;DHT22;9530;48.930;9.526;2023-04-15T03:46:04;3.50;99.90
18805;DHT22;9530;48.930;9.526;2023-04-15T03:48:31;3.40;99.90
18805;DHT22;9530;48.930;9.526;2023-04-15T03:50:57;3.50;99.90
18805;DHT22;9530;48.930;9.526;2023-04-15T03:53:24;3.50;99.90
18805;DHT22;9530;48.930;9.526;2023-04-15T03:55:51;3.50;99.90
18805;DHT22;9530;48.930;9.526;2023-04-15T03:58:17;3.40;99.90
18805;DHT22;9530;48.930;9.526;2023-04-15T04:00:45;3.30;99.90
18805;DHT22;9530;48.930;9.526;2023-04-15T04:03:12;3.30;99.90
18805;DHT22;9530;48.930;9.526;2023-04-15T04:05:39;3.30;99.90
18805;DHT22;9530;48.930;9.526;2023-04-15T04:08:06;3.20;99.90
18805;DHT22;9530;48.930;9.526;2023-04-15T04:10:33;3.20;99.90
18805;DHT22;9530;48.930;9.526;2023-04-15T04:13:00;3.20;99.90
18805;DHT22;9530;48.930;9.526;2023-04-15T04:15:26;3.20;99.90
18805;DHT22;9530;48.930;9.526;2023-04-15T04:17:54;3.00;99.90
18805;DHT22;9530;48.930;9.526;2023-04-15T04:20:21;3.00;99.90
18805;DHT22;9530;48.930;9.526;2023-04-15T04:22:48;3.00;99.90
18805;DHT22;9530;48.930;9.526;2023-04-15T04:25:15;2.90;99.90
18805;DHT22;9530;48.930;9.526;2023-04-15T04:27:42;2.80;99.90
18805;DHT22;9530;48.930;9.526;2023-04-15T04:30:10;2.70;99.90
18805;DHT22;9530;48.930;9.526;2023-04-15T04:32:37;2.80;99.90
18805;DHT22;9530;48.930;9.526;2023-04-15T04:35:05;2.80;99.90
18805;DHT22;9530;48.930;9.526;2023-04-15T04:37:32;2.80;99.90
18805;DHT22;9530;48.930;9.526;2023-04-15T04:39:59;2.70;99.90
18805;DHT22;9530;48.930;9.526;2023-04-15T04:42:26;2.50;99.90
18805;DHT22;9530;48.930;9.526;2023-04-15T04:44:52;2.50;99.90
18805;DHT22;9530;48.930;9.526;2023-04-15T04:47:19;2.50;99.90
18805;DHT22;9530;48.930;9.526;2023-04-15T04:49:46;2.40;99.90
18805;DHT22;9530;48.930;9.526;2023-04-15T04:52:14;2.40;99.90
18805;DHT22;9530;48.930;9.526;2023-04-15T04:54:41;2.50;99.90
18805;DHT22;9530;48.930;9.526;2023-04-15T04:57:07;2.60;99.90
18805;DHT22;9530;48.930;9.526;2023-04-15T04:59:34;2.50;99.90
18805;DHT22;9530;48.930;9.526;2023-04-15T05:02:01;2.40;99.90
18805;DHT22;9530;48.930;9.526;2023-04-15T05:04:28;2.40;99.90
18805;DHT22;9530;48.930;9.526;2023-04-15T05:06:56;2.50;99.90
18805;DHT22;9530;48.930;9.526;2023-04-15T05:09:25;2.60;99.90
18805;DHT22;9530;48.930;9.526;2023-04-15T05:11:51;2.60;99.90
18805;DHT22;9530;48.930;9.526;2023-04-15T05:14:18;2.60;99.90
18805;DHT22;9530;48.930;9.526;2023-04-15T05:16:45;2.60;99.90
18805;DHT22;9530;48.930;9.526;2023-04-15T05:19:11;2.70;99.90
18805;DHT22;9530;48.930;9.526;2023-04-15T05:21:38;2.70;99.90
18805;DHT22;9530;48.930;9.526;2023-04-15T05:24:05;2.80;99.90
18805;DHT22;9530;48.930;9.526;2023-04-15T05:26:33;2.80;99.90
18805;DHT22;9530;48.930;9.526;2023-04-15T05:29:00;2.90;99.90
18805;DHT22;9530;48.930;9.526;2023-04-15T05:31:27;2.80;99.90
18805;DHT22;9530;48.930;9.526;2023-04-15T05:33:53;2.90;99.90
18805;DHT22;9530;48.930;9.526;2023-04-15T05:36:20;2.90;99.90
18805;DHT22;9530;48.930;9.526;2023-04-15T05:38:47;3.00;99.90
18805;DHT22;9530;48.930;9.526;2023-04-15T05:41:13;3.00;99.90
18805;DHT22;9530;48.930;9.526;2023-04-15T05:43:42;3.10;99.90
18805;DHT22;9530;48.930;9.526;2023-04-15T05:46:09;3.20;99.90
18805;DHT22;9530;48.930;9.526;2023-04-15T05:48:35;3.40;99.90
18805;DHT22;9530;48.930;9.526;2023-04-15T05:51:02;3.50;99.90
18805;DHT22;9530;48.930;9.526;2023-04-15T05:53:29;3.60;99.90
18805;DHT22;9530;48.930;9.526;2023-04-15T05:55:56;3.80;99.90
18805;DHT22;9530;48.930;9.526;2023-04-15T05:58:23;3.90;99.90
18805;DHT22;9530;48.930;9.526;2023-04-15T06:00:51;4.10;99.90
18805;DHT22;9530;48.930;9.526;2023-04-15T06:03:18;4.20;99.90
18805;DHT22;9530;48.930;9.526;2023-04-15T06:05:44;4.40;99.90
18805;DHT22;9530;48.930;9.526;2023-04-15T06:08:11;4.60;99.90
18805;DHT22;9530;48.930;9.526;2023-04-15T06:10:38;4.80;99.90
18805;DHT22;9530;48.930;9.526;2023-04-15T06:13:05;4.90;99.90
18805;DHT22;9530;48.930;9.526;2023-04-15T06:15:31;5.10;99.90
18805;DHT22;9530;48.930;9.526;2023-04-15T06:17:59;5.10;99.90
18805;DHT22;9530;48.930;9.526;2023-04-15T06:20:26;5.20;99.90
18805;DHT22;9530;48.930;9.526;2023-04-15T06:22:53;5.30;99.90
18805;DHT22;9530;48.930;9.526;2023-04-15T06:25:20;5.40;99.90
18805;DHT22;9530;48.930;9.526;2023-04-15T06:27:46;5.50;99.90
18805;DHT22;9530;48.930;9.526;2023-04-15T06:30:13;5.60;99.90
18805;DHT22;9530;48.930;9.526;2023-04-15T06:32:40;5.70;99.90
18805;DHT22;9530;48.930;9.526;2023-04-15T06:35:08;5.80;99.90
18805;DHT22;9530;48.930;9.526;2023-04-15T06:37:36;5.90;99.90
18805;DHT22;9530;48.930;9.526;2023-04-15T06:40:02;6.00;99.90
18805;DHT22;9530;48.930;9.526;2023-04-15T06:42:30;6.10;99.90
18805;DHT22;9530;48.930;9.526;2023-04-15T06:44:57;6.20;99.90
18805;DHT22;9530;48.930;9.526;2023-04-15T06:47:23;6.40;99.90
18805;DHT22;9530;48.930;9.526;2023-04-15T06:49:50;6.50;99.90
18805;DHT22;9530;48.930;9.526;2023-04-15T06:52:18;6.70;99.90
18805;DHT22;9530;48.930;9.526;2023-04-15T06:54:45;6.90;99.90
18805;DHT22;9530;48.930;9.526;2023-04-15T06:57:12;7.10;99.90
18805;DHT22;9530;48.930;9.526;2023-04-15T06:59:38;7.30;99.90
18805;DHT22;9530;48.930;9.526;2023-04-15T07:02:07;7.40;99.90
18805;DHT22;9530;48.930;9.526;2023-04-15T07:04:35;7.60;99.90
18805;DHT22;9530;48.930;9.526;2023-04-15T07:07:02;7.70;99.90
18805;DHT22;9530;48.930;9.526;2023-04-15T07:09:30;7.80;99.90
18805;DHT22;9530;48.930;9.526;2023-04-15T07:11:58;8.00;99.90
18805;DHT22;9530;48.930;9.526;2023-04-15T07:14:25;8.30;99.90
18805;DHT22;9530;48.930;9.526;2023-04-15T07:16:52;8.40;99.90
18805;DHT22;9530;48.930;9.526;2023-04-15T07:19:18;8.60;99.90
18805;DHT22;9530;48.930;9.526;2023-04-15T07:21:46;8.80;99.90
18805;DHT22;9530;48.930;9.526;2023-04-15T07:24:12;9.00;99.90
18805;DHT22;9530;48.930;9.526;2023-04-15T07:26:43;9.20;99.90
18805;DHT22;9530;48.930;9.526;2023-04-15T07:29:10;9.20;99.90
18805;DHT22;9530;48.930;9.526;2023-04-15T07:31:36;9.30;99.90
18805;DHT22;9530;48.930;9.526;2023-04-15T07:34:03;9.40;99.90
18805;DHT22;9530;48.930;9.526;2023-04-15T07:36:30;9.30;99.90
18805;DHT22;9530;48.930;9.526;2023-04-15T07:38:56;9.20;99.90
18805;DHT22;9530;48.930;9.526;2023-04-15T07:41:23;9.40;99.90
18805;DHT22;9530;48.930;9.526;2023-04-15T07:43:51;9.70;99.90
18805;DHT22;9530;48.930;9.526;2023-04-15T07:46:18;9.90;99.90
18805;DHT22;9530;48.930;9.526;2023-04-15T07:48:45;10.20;99.90
18805;DHT22;9530;48.930;9.526;2023-04-15T07:51:11;10.50;99.90
18805;DHT22;9530;48.930;9.526;2023-04-15T07:53:38;10.60;99.90
18805;DHT22;9530;48.930;9.526;2023-04-15T07:56:05;10.50;99.90
18805;DHT22;9530;48.930;9.526;2023-04-15T07:58:32;10.50;99.90
18805;DHT22;9530;48.930;9.526;2023-04-15T08:01:00;10.30;99.90
18805;DHT22;9530;48.930;9.526;2023-04-15T08:03:26;10.30;99.90
18805;DHT22;9530;48.930;9.526;2023-04-15T08:05:53;10.40;99.90
18805;DHT22;9530;48.930;9.526;2023-04-15T08:08:20;10.70;99.90
18805;DHT22;9530;48.930;9.526;2023-04-15T08:10:46;10.70;99.90
18805;DHT22;9530;48.930;9.526;2023-04-15T08:13:13;10.70;99.90
18805;DHT22;9530;48.930;9.526;2023-04-15T08:15:40;10.80;99.90
18805;DHT22;9530;48.930;9.526;2023-04-15T08:18:08;10.80;99.90
18805;DHT22;9530;48.930;9.526;2023-04-15T08:20:35;10.90;99.90
18805;DHT22;9530;48.930;9.526;2023-04-15T08:23:02;11.00;99.90
18805;DHT22;9530;48.930;9.526;2023-04-15T08:25:30;11.10;99.90
18805;DHT22;9530;48.930;9.526;2023-04-15T08:27:56;11.10;99.90
18805;DHT22;9530;48.930;9.526;2023-04-15T08:30:23;11.40;99.90
18805;DHT22;9530;48.930;9.526;2023-04-15T08:32:50;11.60;99.90
18805;DHT22;9530;48.930;9.526;2023-04-15T08:35:18;11.50;99.90
18805;DHT22;9530;48.930;9.526;2023-04-15T08:37:44;11.50;99.90
18805;DHT22;9530;48.930;9.526;2023-04-15T08:40:11;11.60;99.90
18805;DHT22;9530;48.930;9.526;2023-04-15T08:42:42;11.60;99.90
18805;DHT22;9530;48.930;9.526;2023-04-15T08:45:10;11.90;99.90
18805;DHT22;9530;48.930;9.526;2023-04-15T08:47:37;12.10;99.90
18805;DHT22;9530;48.930;9.526;2023-04-15T08:50:08;11.90;99.90
18805;DHT22;9530;48.930;9.526;2023-04-15T08:52:36;11.70;99.90
18805;DHT22;9530;48.930;9.526;2023-04-15T08:55:04;12.10;99.90
18805;DHT22;9530;48.930;9.526;2023-04-15T08:57:34;12.40;99.90
18805;DHT22;9530;48.930;9.526;2023-04-15T09:00:03;12.80;99.90
18805;DHT22;9530;48.930;9.526;2023-04-15T09:02:30;13.00;99.90
18805;DHT22;9530;48.930;9.526;2023-04-15T09:04:57;13.00;99.90
18805;DHT22;9530;48.930;9.526;2023-04-15T09:07:24;13.10;99.90
18805;DHT22;9530;48.930;9.526;2023-04-15T09:09:52;13.20;99.90
18805;DHT22;9530;48.930;9.526;2023-04-15T09:12:19;13.10;99.90
18805;DHT22;9530;48.930;9.526;2023-04-15T09:14:46;13.20;99.90
18805;DHT22;9530;48.930;9.526;2023-04-15T09:17:18;13.20;99.90
18805;DHT22;9530;48.930;9.526;2023-04-15T09:19:44;13.30;99.90
18805;DHT22;9530;48.930;9.526;2023-04-15T09:22:11;13.60;99.90
18805;DHT22;9530;48.930;9.526;2023-04-15T09:24:39;14.10;99.90
18805;DHT22;9530;48.930;9.526;2023-04-15T09:27:09;14.40;99.90
18805;DHT22;9530;48.930;9.526;2023-04-15T09:29:36;14.60;99.90
18805;DHT22;9530;48.930;9.526;2023-04-15T09:32:09;14.60;99.90
18805;DHT22;9530;48.930;9.526;2023-04-15T09:34:36;14.20;99.90
18805;DHT22;9530;48.930;9.526;2023-04-15T09:37:03;14.40;99.90
18805;DHT22;9530;48.930;9.526;2023-04-15T09:39:44;14.30;99.90
18805;DHT22;9530;48.930;9.526;2023-04-15T09:42:14;14.40;99.90
18805;DHT22;9530;48.930;9.526;2023-04-15T09:44:42;14.30;99.90
18805;DHT22;9530;48.930;9.526;2023-04-15T09:47:09;14.30;99.90
18805;DHT22;9530;48.930;9.526;2023-04-15T09:49:54;14.80;99.90
18805;DHT22;9530;48.930;9.526;2023-04-15T09:52:22;15.00;99.90
18805;DHT22;9530;48.930;9.526;2023-04-15T09:54:52;14.90;99.90
18805;DHT22;9530;48.930;9.526;2023-04-15T09:57:20;14.90;99.90
18805;DHT22;9530;48.930;9.526;2023-04-15T09:59:48;14.80;99.90
18805;DHT22;9530;48.930;9.526;2023-04-15T10:02:15;14.80;99.90
18805;DHT22;9530;48.930;9.526;2023-04-15T10:04:44;14.80;99.90
18805;DHT22;9530;48.930;9.526;2023-04-15T10:07:12;14.80;99.90
18805;DHT22;9530;48.930;9.526;2023-04-15T10:09:40;14.80;99.90
18805;DHT22;9530;48.930;9.526;2023-04-15T10:12:10;14.70;99.90
18805;DHT22;9530;48.930;9.526;2023-04-15T10:14:39;14.30;99.90
18805;DHT22;9530;48.930;9.526;2023-04-15T10:17:10;13.90;99.90
18805;DHT22;9530;48.930;9.526;2023-04-15T10:19:37;14.00;99.90
18805;DHT22;9530;48.930;9.526;2023-04-15T10:22:05;13.80;99.90
18805;DHT22;9530;48.930;9.526;2023-04-15T10:24:32;13.90;99.90
18805;DHT22;9530;48.930;9.526;2023-04-15T10:26:59;14.10;99.90
18805;DHT22;9530;48.930;9.526;2023-04-15T10:29:26;14.20;99.90
18805;DHT22;9530;48.930;9.526;2023-04-15T10:31:55;14.40;99.90
18805;DHT22;9530;48.930;9.526;2023-04-15T10:34:23;14.80;99.90
18805;DHT22;9530;48.930;9.526;2023-04-15T10:36:50;14.50;99.90
18805;DHT22;9530;48.930;9.526;2023-04-15T10:39:42;14.30;99.90
18805;DHT22;9530;48.930;9.526;2023-04-15T10:42:10;14.50;99.90
18805;DHT22;9530;48.930;9.526;2023-04-15T10:44:37;14.00;99.90
18805;DHT22;9530;48.930;9.526;2023-04-15T10:47:09;14.10;99.90
18805;DHT22;9530;48.930;9.526;2023-04-15T10:49:43;13.70;99.90
18805;DHT22;9530;48.930;9.526;2023-04-15T10:52:10;13.40;99.90
18805;DHT22;9530;48.930;9.526;2023-04-15T10:54:37;13.70;99.90
18805;DHT22;9530;48.930;9.526;2023-04-15T10:57:08;13.60;99.90
18805;DHT22;9530;48.930;9.526;2023-04-15T10:59:59;13.80;99.90
18805;DHT22;9530;48.930;9.526;2023-04-15T11:02:39;13.70;99.90
18805;DHT22;9530;48.930;9.526;2023-04-15T11:05:07;13.50;99.90
18805;DHT22;9530;48.930;9.526;2023-04-15T11:07:35;13.80;99.90
18805;DHT22;9530;48.930;9.526;2023-04-15T11:10:02;13.80;99.90
18805;DHT22;9530;48.930;9.526;2023-04-15T11:12:36;14.00;99.90
18805;DHT22;9530;48.930;9.526;2023-04-15T11:15:23;14.20;99.90
18805;DHT22;9530;48.930;9.526;2023-04-15T11:17:51;14.00;99.90
18805;DHT22;9530;48.930;9.526;2023-04-15T11:20:19;13.40;99.90
18805;DHT22;9530;48.930;9.526;2023-04-15T11:22:49;13.20;99.90
18805;DHT22;9530;48.930;9.526;2023-04-15T11:25:22;13.00;99.90
18805;DHT22;9530;48.930;9.526;2023-04-15T11:27:49;13.20;99.90
18805;DHT22;9530;48.930;9.526;2023-04-15T11:30:18;13.10;99.90
18805;DHT22;9530;48.930;9.526;2023-04-15T11:32:46;13.50;99.90
18805;DHT22;9530;48.930;9.526;2023-04-15T11:35:15;13.20;99.90
18805;DHT22;9530;48.930;9.526;2023-04-15T11:37:42;13.40;99.90
18805;DHT22;9530;48.930;9.526;2023-04-15T11:40:09;13.50;99.90
18805;DHT22;9530;48.930;9.526;2023-04-15T11:42:36;13.40;99.90
18805;DHT22;9530;48.930;9.526;2023-04-15T11:45:06;13.20;99.90
18805;DHT22;9530;48.930;9.526;2023-04-15T11:47:34;13.20;99.90
18805;DHT22;9530;48.930;9.526;2023-04-15T11:50:17;13.40;99.90
18805;DHT22;9530;48.930;9.526;2023-04-15T11:52:54;13.30;99.90
18805;DHT22;9530;48.930;9.526;2023-04-15T11:55:22;13.40;99.90
18805;DHT22;9530;48.930;9.526;2023-04-15T11:57:49;13.50;99.90
18805;DHT22;9530;48.930;9.526;2023-04-15T12:00:16;13.60;99.90
18805;DHT22;9530;48.930;9.526;2023-04-15T12:02:42;13.90;99.90
18805;DHT22;9530;48.930;9.526;2023-04-15T12:05:09;14.20;99.90
18805;DHT22;9530;48.930;9.526;2023-04-15T12:07:59;14.40;99.90
18805;DHT22;9530;48.930;9.526;2023-04-15T12:10:26;14.60;99.90
18805;DHT22;9530;48.930;9.526;2023-04-15T12:12:52;14.60;99.90
18805;DHT22;9530;48.930;9.526;2023-04-15T12:15:21;14.60;99.90
18805;DHT22;9530;48.930;9.526;2023-04-15T12:17:48;14.60;99.90
18805;DHT22;9530;48.930;9.526;2023-04-15T12:20:20;14.30;99.90
18805;DHT22;9530;48.930;9.526;2023-04-15T12:22:47;13.60;99.90
18805;DHT22;9530;48.930;9.526;2023-04-15T12:25:15;13.60;99.90
18805;DHT22;9530;48.930;9.526;2023-04-15T12:27:50;13.50;99.90
18805;DHT22;9530;48.930;9.526;2023-04-15T12:30:17;13.20;99.90
18805;DHT22;9530;48.930;9.526;2023-04-15T12:32:45;13.00;99.90
18805;DHT22;9530;48.930;9.526;2023-04-15T12:35:12;13.40;99.90
18805;DHT22;9530;48.930;9.526;2023-04-15T12:37:39;13.40;99.90
18805;DHT22;9530;48.930;9.526;2023-04-15T12:40:07;13.50;99.90
18805;DHT22;9530;48.930;9.526;2023-04-15T12:42:35;13.70;99.90
18805;DHT22;9530;48.930;9.526;2023-04-15T12:45:02;13.90;99.90
18805;DHT22;9530;48.930;9.526;2023-04-15T12:47:29;13.70;99.90
18805;DHT22;9530;48.930;9.526;2023-04-15T12:49:56;13.50;99.90
18805;DHT22;9530;48.930;9.526;2023-04-15T12:52:22;13.20;99.90
18805;DHT22;9530;48.930;9.526;2023-04-15T12:54:49;13.10;99.90
18805;DHT22;9530;48.930;9.526;2023-04-15T12:57:16;13.00;99.90
18805;DHT22;9530;48.930;9.526;2023-04-15T12:59:44;12.80;99.90
18805;DHT22;9530;48.930;9.526;2023-04-15T13:02:11;12.60;99.90
18805;DHT22;9530;48.930;9.526;2023-04-15T13:04:38;12.70;99.90
18805;DHT22;9530;48.930;9.526;2023-04-15T13:07:05;12.80;99.90
18805;DHT22;9530;48.930;9.526;2023-04-15T13:09:32;12.90;99.90
18805;DHT22;9530;48.930;9.526;2023-04-15T13:11:59;13.00;99.90
18805;DHT22;9530;48.930;9.526;2023-04-15T13:14:25;12.90;99.90
18805;DHT22;9530;48.930;9.526;2023-04-15T13:16:53;12.60;99.90
18805;DHT22;9530;48.930;9.526;2023-04-15T13:19:20;12.40;99.90
18805;DHT22;9530;48.930;9.526;2023-04-15T13:21:47;12.30;99.90
18805;DHT22;9530;48.930;9.526;2023-04-15T13:24:14;12.40;99.90
18805;DHT22;9530;48.930;9.526;2023-04-15T13:26:40;12.30;99.90
18805;DHT22;9530;48.930;9.526;2023-04-15T13:29:08;12.40;99.90
18805;DHT22;9530;48.930;9.526;2023-04-15T13:31:35;12.50;99.90
18805;DHT22;9530;48.930;9.526;2023-04-15T13:34:03;12.40;99.90
18805;DHT22;9530;48.930;9.526;2023-04-15T13:36:30;12.30;99.90
18805;DHT22;9530;48.930;9.526;2023-04-15T13:38:57;12.20;99.90
18805;DHT22;9530;48.930;9.526;2023-04-15T13:41:24;12.20;99.90
18805;DHT22;9530;48.930;9.526;2023-04-15T13:43:51;12.10;99.90
18805;DHT22;9530;48.930;9.526;2023-04-15T13:46:17;12.00;99.90
18805;DHT22;9530;48.930;9.526;2023-04-15T13:48:44;11.80;99.90
18805;DHT22;9530;48.930;9.526;2023-04-15T13:51:12;12.00;99.90
18805;DHT22;9530;48.930;9.526;2023-04-15T13:53:38;11.90;99.90
18805;DHT22;9530;48.930;9.526;2023-04-15T13:56:06;12.10;99.90
18805;DHT22;9530;48.930;9.526;2023-04-15T13:58:32;11.90;99.90
18805;DHT22;9530;48.930;9.526;2023-04-15T14:00:59;11.80;99.90
18805;DHT22;9530;48.930;9.526;2023-04-15T14:03:26;11.80;99.90
18805;DHT22;9530;48.930;9.526;2023-04-15T14:05:52;11.90;99.90
18805;DHT22;9530;48.930;9.526;2023-04-15T14:08:22;11.70;99.90
18805;DHT22;9530;48.930;9.526;2023-04-15T14:10:50;11.70;99.90
18805;DHT22;9530;48.930;9.526;2023-04-15T14:13:16;11.80;99.90
18805;DHT22;9530;48.930;9.526;2023-04-15T14:15:43;11.80;99.90
18805;DHT22;9530;48.930;9.526;2023-04-15T14:18:10;11.70;99.90
18805;DHT22;9530;48.930;9.526;2023-04-15T14:20:37;11.70;99.90
18805;DHT22;9530;48.930;9.526;2023-04-15T14:23:04;11.70;99.90
18805;DHT22;9530;48.930;9.526;2023-04-15T14:25:32;11.70;99.90
18805;DHT22;9530;48.930;9.526;2023-04-15T14:27:58;11.70;99.90
18805;DHT22;9530;48.930;9.526;2023-04-15T14:30:25;11.50;99.90
18805;DHT22;9530;48.930;9.526;2023-04-15T14:32:52;11.70;99.90
18805;DHT22;9530;48.930;9.526;2023-04-15T14:35:18;11.70;99.90
18805;DHT22;9530;48.930;9.526;2023-04-15T14:37:45;11.50;99.90
18805;DHT22;9530;48.930;9.526;2023-04-15T14:40:12;11.40;99.90
18805;DHT22;9530;48.930;9.526;2023-04-15T14:42:40;11.30;99.90
18805;DHT22;9530;48.930;9.526;2023-04-15T14:45:07;11.30;99.90
18805;DHT22;9530;48.930;9.526;2023-04-15T14:47:34;11.10;99.90
18805;DHT22;9530;48.930;9.526;2023-04-15T14:50:01;11.00;99.90
18805;DHT22;9530;48.930;9.526;2023-04-15T14:52:29;11.00;99.90
18805;DHT22;9530;48.930;9.526;2023-04-15T14:54:57;11.00;99.90
18805;DHT22;9530;48.930;9.526;2023-04-15T14:57:24;11.10;99.90
18805;DHT22;9530;48.930;9.526;2023-04-15T14:59:51;11.20;99.90
18805;DHT22;9530;48.930;9.526;2023-04-15T15:02:21;11.20;99.90
18805;DHT22;9530;48.930;9.526;2023-04-15T15:04:47;11.30;99.90
18805;DHT22;9530;48.930;9.526;2023-04-15T15:07:14;11.20;99.90
18805;DHT22;9530;48.930;9.526;2023-04-15T15:09:41;11.00;99.90
18805;DHT22;9530;48.930;9.526;2023-04-15T15:12:07;10.70;99.90
18805;DHT22;9530;48.930;9.526;2023-04-15T15:17:02;10.60;99.90
18805;DHT22;9530;48.930;9.526;2023-04-15T15:19:29;10.50;99.90
18805;DHT22;9530;48.930;9.526;2023-04-15T15:21:56;10.50;99.90
18805;DHT22;9530;48.930;9.526;2023-04-15T15:24:22;10.30;99.90
18805;DHT22;9530;48.930;9.526;2023-04-15T15:26:49;10.20;99.90
18805;DHT22;9530;48.930;9.526;2023-04-15T15:29:16;10.20;99.90
18805;DHT22;9530;48.930;9.526;2023-04-15T15:31:42;10.20;99.90
18805;DHT22;9530;48.930;9.526;2023-04-15T15:34:10;10.20;99.90
18805;DHT22;9530;48.930;9.526;2023-04-15T15:36:37;10.30;99.90
18805;DHT22;9530;48.930;9.526;2023-04-15T15:39:04;10.30;99.90
18805;DHT22;9530;48.930;9.526;2023-04-15T15:41:30;10.10;99.90
18805;DHT22;9530;48.930;9.526;2023-04-15T15:43:58;10.00;99.90
18805;DHT22;9530;48.930;9.526;2023-04-15T15:46:25;10.90;99.90
18805;DHT22;9530;48.930;9.526;2023-04-15T15:48:52;9.80;99.90
18805;DHT22;9530;48.930;9.526;2023-04-15T15:51:20;9.80;99.90
18805;DHT22;9530;48.930;9.526;2023-04-15T15:53:47;9.70;99.90
18805;DHT22;9530;48.930;9.526;2023-04-15T15:56:14;9.60;99.90
18805;DHT22;9530;48.930;9.526;2023-04-15T15:58:41;9.60;99.90